createdAt,value
2023-04-16T06:56:25.727Z,13.97
2023-04-16T06:58:52.876Z,14.81
2023-04-16T07:01:20.034Z,16.24
2023-04-16T07:03:47.380Z,15.53
2023-04-16T07:06:14.874Z,15.91
2023-04-16T07:08:42.035Z,16.16
2023-04-16T07:11:09.236Z,15.78
2023-04-16T07:13:37.795Z,15.50
2023-04-16T07:16:05.517Z,14.17
2023-04-16T07:18:33.119Z,14.46
2023-04-16T07:21:00.399Z,13.29
2023-04-16T07:23:27.645Z,12.63
2023-04-16T07:25:54.858Z,12.05
2023-04-16T07:28:22.159Z,11.61
2023-04-16T07:30:50.863Z,11.53
2023-04-16T07:33:18.090Z,11.14
2023-04-16T07:35:45.395Z,9.38
2023-04-16T07:38:12.926Z,8.35
2023-04-16T07:40:40.096Z,7.87
2023-04-16T07:43:07.479Z,7.22
2023-04-16T07:45:34.646Z,7.81
2023-04-16T07:48:03.382Z,9.09
2023-04-16T07:50:30.606Z,9.91
2023-04-16T07:52:57.819Z,10.24
2023-04-16T07:55:24.971Z,10.69
2023-04-16T07:57:52.262Z,10.20
2023-04-16T08:00:19.459Z,10.37
2023-04-16T08:02:46.913Z,10.32
2023-04-16T08:05:15.660Z,10.58
2023-04-16T08:07:42.873Z,10.51
2023-04-16T08:10:10.313Z,10.69
2023-04-16T08:12:37.542Z,11.78
2023-04-16T08:15:05.541Z,11.11
2023-04-16T08:17:32.894Z,11.22
2023-04-16T08:20:00.104Z,10.61
2023-04-16T08:22:28.723Z,9.52
2023-04-16T08:24:55.990Z,10.68
2023-04-16T08:27:23.304Z,10.91
2023-04-16T08:29:50.454Z,10.78
2023-04-16T08:32:17.721Z,11.10
2023-04-16T08:34:44.934Z,10.75
2023-04-16T08:37:12.086Z,10.61
2023-04-16T08:39:40.662Z,10.32
2023-04-16T08:42:09.462Z,10.42
2023-04-16T08:44:38.124Z,10.22
2023-04-16T08:47:05.639Z,10.23
2023-04-16T08:49:32.889Z,10.21
2023-04-16T08:52:00.081Z,10.50
2023-04-16T08:54:39.125Z,10.69
2023-04-16T08:57:07.915Z,10.63
2023-04-16T08:59:34.983Z,10.94
2023-04-16T09:02:02.464Z,10.06
2023-04-16T09:04:30.001Z,9.80
2023-04-16T09:06:57.281Z,8.85
2023-04-16T09:09:24.478Z,9.39
2023-04-16T09:11:51.960Z,9.39
2023-04-16T09:14:20.662Z,10.48
2023-04-16T09:16:47.907Z,10.31
2023-04-16T09:19:15.371Z,10.38
2023-04-16T09:21:42.681Z,9.97
2023-04-16T09:24:09.922Z,9.91
2023-04-16T09:26:37.133Z,9.82
2023-04-16T09:29:04.371Z,9.44
2023-04-16T09:31:33.089Z,9.55
2023-04-16T09:34:03.619Z,10.35
2023-04-16T09:36:30.814Z,10.05
2023-04-16T09:38:58.046Z,10.08
2023-04-16T09:41:25.923Z,10.18
2023-04-16T09:43:56.681Z,10.74
2023-04-16T09:46:24.581Z,10.24
2023-04-16T09:48:53.327Z,10.17
2023-04-16T09:51:20.587Z,8.42
2023-04-16T09:53:47.782Z,7.86
2023-04-16T09:56:14.986Z,7.32
2023-04-16T09:58:42.173Z,7.33
2023-04-16T10:01:10.802Z,7.20
2023-04-16T10:03:39.173Z,6.27
2023-04-16T10:06:14.847Z,6.65
2023-04-16T10:08:43.782Z,6.93
2023-04-16T10:11:11.266Z,6.85
2023-04-16T10:13:38.456Z,6.99
2023-04-16T10:16:06.485Z,6.72
2023-04-16T10:18:33.627Z,7.11
2023-04-16T10:21:00.897Z,6.72
2023-04-16T10:23:29.529Z,6.74
2023-04-16T10:25:57.774Z,7.00
2023-04-16T10:28:25.177Z,6.77
2023-04-16T10:30:52.702Z,6.74
2023-04-16T10:33:20.973Z,6.92
2023-04-16T10:35:54.981Z,6.92
2023-04-16T10:38:33.442Z,6.99
2023-04-16T10:41:00.766Z,6.51
2023-04-16T10:43:28.696Z,6.72
2023-04-16T10:45:55.935Z,6.47
2023-04-16T10:48:24.462Z,6.29
2023-04-16T10:50:55.220Z,6.09
2023-04-16T10:53:23.788Z,6.26
2023-04-16T10:55:59.283Z,5.99
2023-04-16T10:58:29.662Z,6.15
2023-04-16T11:00:59.802Z,5.97
2023-04-16T11:03:30.241Z,6.03
2023-04-16T11:06:11.408Z,5.84
2023-04-16T11:08:51.221Z,5.32
2023-04-16T11:11:23.121Z,5.36
2023-04-16T11:13:50.377Z,5.34
2023-04-16T11:16:17.637Z,5.15
2023-04-16T11:18:51.392Z,5.11
2023-04-16T11:21:19.048Z,4.95
2023-04-16T11:23:47.526Z,4.58
2023-04-16T11:26:26.447Z,4.50
2023-04-16T11:28:54.057Z,4.46
2023-04-16T11:31:21.493Z,4.59
2023-04-16T11:33:48.684Z,4.51
2023-04-16T11:36:15.903Z,4.65
2023-04-16T11:38:43.076Z,5.32
2023-04-16T11:41:10.335Z,5.84
2023-04-16T11:43:38.957Z,6.35
2023-04-16T11:46:16.716Z,6.97
2023-04-16T11:48:52.093Z,7.32
2023-04-16T11:51:19.442Z,7.32
2023-04-16T11:53:47.789Z,6.81
2023-04-16T11:56:15.092Z,6.76
2023-04-16T11:58:43.791Z,6.40
2023-04-16T12:01:11.103Z,6.52
2023-04-16T12:03:39.963Z,5.89
2023-04-16T12:06:10.597Z,5.25
2023-04-16T12:08:37.769Z,5.06
2023-04-16T12:11:06.119Z,5.94
2023-04-16T12:13:33.305Z,5.69
2023-04-16T12:16:02.079Z,5.60
2023-04-16T12:18:29.309Z,5.72
2023-04-16T12:20:56.551Z,5.92
2023-04-16T12:23:24.798Z,5.73
2023-04-16T12:25:52.132Z,6.45
2023-04-16T12:28:28.171Z,6.30
2023-04-16T12:30:55.471Z,6.22
2023-04-16T12:33:24.163Z,6.03
2023-04-16T12:35:51.419Z,6.40
2023-04-16T12:38:18.744Z,5.81
2023-04-16T12:40:45.936Z,6.33
2023-04-16T12:43:13.295Z,6.28
2023-04-16T12:45:40.598Z,6.40
2023-04-16T12:48:07.961Z,6.45
2023-04-16T12:50:36.495Z,7.25
2023-04-16T12:53:03.766Z,7.37
2023-04-16T12:55:30.900Z,7.22
2023-04-16T12:57:58.171Z,7.07
2023-04-16T13:00:25.503Z,7.33
2023-04-16T13:02:52.903Z,7.38
2023-04-16T13:05:20.188Z,7.51
2023-04-16T13:07:48.846Z,7.59
2023-04-16T13:10:16.096Z,7.83
2023-04-16T13:12:43.395Z,8.15
2023-04-16T13:15:11.258Z,8.71
2023-04-16T13:17:38.585Z,8.95
2023-04-16T13:20:06.707Z,8.42
2023-04-16T13:22:33.999Z,8.07
2023-04-16T13:25:02.643Z,7.76
2023-04-16T13:27:29.791Z,7.81
2023-04-16T13:29:56.989Z,7.91
2023-04-16T13:32:24.257Z,7.66
2023-04-16T13:34:51.506Z,7.99
2023-04-16T13:37:18.809Z,7.83
2023-04-16T13:39:46.053Z,8.00
2023-04-16T13:42:15.902Z,7.81
2023-04-16T13:44:43.097Z,7.63
2023-04-16T13:47:10.431Z,7.04
2023-04-16T13:49:37.673Z,6.75
2023-04-16T13:52:05.118Z,6.45
2023-04-16T13:54:32.534Z,6.74
2023-04-16T13:56:59.688Z,6.26
2023-04-16T13:59:28.390Z,6.28
2023-04-16T14:01:55.738Z,5.97
2023-04-16T14:04:23.051Z,6.27
2023-04-16T14:06:50.357Z,6.43
2023-04-16T14:09:17.553Z,6.60
2023-04-16T14:11:44.794Z,6.70
2023-04-16T14:14:12.050Z,6.60
2023-04-16T17:49:48.759Z,3.96
2023-04-16T17:52:16.353Z,4.16
2023-04-16T17:54:43.483Z,3.62
2023-04-16T17:57:10.747Z,3.73
2023-04-16T17:59:37.909Z,3.85
2023-04-16T18:02:05.186Z,3.78
2023-04-16T18:04:32.660Z,3.73
2023-04-16T18:07:01.273Z,4.14
2023-04-16T18:09:28.417Z,4.33
2023-04-16T18:11:55.620Z,3.96
2023-04-16T18:14:22.829Z,3.82
2023-04-16T18:16:49.981Z,4.00
2023-04-16T18:19:17.185Z,3.81
2023-04-16T18:21:44.468Z,3.87
2023-04-16T18:24:13.209Z,3.72
2023-04-16T18:26:41.286Z,3.99
2023-04-16T18:29:09.192Z,3.89
2023-04-16T18:31:36.604Z,4.45
2023-04-16T18:34:03.840Z,4.73
2023-04-16T18:36:31.035Z,5.01
2023-04-16T18:39:02.205Z,5.22
2023-04-16T18:41:31.413Z,5.68
2023-04-16T18:43:58.676Z,5.40
2023-04-16T18:46:25.930Z,5.66
2023-04-16T18:48:53.208Z,5.90
2023-04-16T18:51:20.378Z,5.89
2023-04-16T18:53:47.433Z,6.11
2023-04-16T18:56:14.684Z,6.01
2023-04-16T18:58:43.273Z,5.99
2023-04-16T19:01:10.535Z,6.01
2023-04-16T19:03:38.064Z,6.09
2023-04-16T19:06:05.501Z,6.25
2023-04-16T19:08:32.795Z,5.94
2023-04-16T19:10:59.904Z,6.14
2023-04-16T19:13:27.100Z,6.23
2023-04-16T19:15:58.659Z,5.83
2023-04-16T19:18:25.873Z,6.23
2023-04-16T19:20:58.977Z,6.19
2023-04-16T19:23:26.288Z,5.80
2023-04-16T19:25:53.490Z,6.60
2023-04-16T19:28:20.687Z,6.48
2023-04-16T19:30:50.089Z,6.32
2023-04-16T19:33:18.752Z,6.36
2023-04-16T19:35:45.918Z,6.36
2023-04-16T19:38:13.067Z,6.15
2023-04-16T19:40:40.213Z,6.72
2023-04-16T19:43:07.375Z,6.92
2023-04-16T19:45:34.508Z,6.84
2023-04-16T19:48:01.744Z,6.98
2023-04-16T19:50:30.246Z,7.29
2023-04-16T19:52:57.426Z,7.02
2023-04-16T19:55:24.692Z,7.24
2023-04-16T19:57:51.783Z,7.57
2023-04-16T20:00:19.413Z,6.85
2023-04-16T20:02:46.792Z,7.09
2023-04-16T20:05:14.234Z,7.03
2023-04-16T20:07:42.823Z,7.24
2023-04-16T20:10:10.768Z,7.49
2023-04-16T20:12:38.016Z,7.09
2023-04-16T20:15:06.301Z,6.94
2023-04-16T20:17:33.537Z,6.53
2023-04-16T20:20:00.700Z,6.18
2023-04-16T20:22:27.890Z,6.27
2023-04-16T20:24:56.487Z,6.00
2023-04-16T20:27:23.729Z,5.73
2023-04-16T20:29:50.817Z,5.78
2023-04-16T20:32:18.026Z,5.84
2023-04-16T20:34:45.088Z,6.19
2023-04-16T20:37:12.365Z,5.56
2023-04-16T20:39:39.619Z,5.15
2023-04-16T20:42:08.352Z,5.43
2023-04-16T20:44:35.720Z,5.43
2023-04-16T20:47:02.902Z,5.10
2023-04-16T20:49:30.071Z,5.67
2023-04-16T20:51:57.405Z,5.70
2023-04-16T20:54:24.577Z,5.98
2023-04-16T20:56:51.889Z,5.23
2023-04-16T20:59:20.563Z,4.89
